createdAt,value
2018-08-13T00:00:01.980Z,19.40
2018-08-13T00:02:30.637Z,19.40
2018-08-13T00:04:59.286Z,19.30
2018-08-13T00:07:27.989Z,19.30
2018-08-13T00:09:57.587Z,19.30
2018-08-13T00:12:27.798Z,19.30
2018-08-13T00:14:56.410Z,19.40
2018-08-13T00:17:25.154Z,19.30
2018-08-13T00:19:53.767Z,19.30
2018-08-13T00:22:22.301Z,19.20
2018-08-13T00:24:50.887Z,19.20
2018-08-13T00:27:19.425Z,19.20
2018-08-13T00:29:48.357Z,19.20
2018-08-13T00:32:16.928Z,19.10
2018-08-13T00:34:45.570Z,19.10
2018-08-13T00:37:15.002Z,19.20
2018-08-13T00:39:43.585Z,19.10
2018-08-13T00:42:12.316Z,19.10
2018-08-13T00:44:40.883Z,19.10
2018-08-13T00:47:09.789Z,19.00
2018-08-13T00:49:38.352Z,19.20
2018-08-13T00:52:06.919Z,19.30
2018-08-13T00:54:35.544Z,19.30
2018-08-13T00:57:04.206Z,19.30
2018-08-13T00:59:32.903Z,19.40
2018-08-13T01:02:01.493Z,19.40
2018-08-13T01:04:30.042Z,19.40
2018-08-13T01:06:58.615Z,19.50
2018-08-13T01:09:27.229Z,19.50
2018-08-13T01:11:55.865Z,19.50
2018-08-13T01:14:24.401Z,19.50
2018-08-13T01:16:52.942Z,19.50
2018-08-13T01:19:21.723Z,19.60
2018-08-13T01:21:50.279Z,19.60
2018-08-13T01:24:19.858Z,19.60
2018-08-13T01:26:49.304Z,19.50
2018-08-13T01:29:19.610Z,19.40
2018-08-13T01:31:48.271Z,19.30
2018-08-13T01:34:16.971Z,19.30
2018-08-13T01:36:45.647Z,19.30
2018-08-13T01:39:14.283Z,19.50
2018-08-13T01:41:42.973Z,19.50
2018-08-13T01:44:11.617Z,19.50
2018-08-13T01:46:40.309Z,19.60
2018-08-13T01:49:08.960Z,19.60
2018-08-13T01:51:37.755Z,19.50
2018-08-13T01:54:06.452Z,19.40
2018-08-13T01:56:35.059Z,19.50
2018-08-13T01:59:03.838Z,19.60
2018-08-13T02:01:32.622Z,19.60
2018-08-13T02:04:01.229Z,19.70
2018-08-13T02:06:29.914Z,19.70
2018-08-13T02:08:58.732Z,19.70
2018-08-13T02:11:27.482Z,19.70
2018-08-13T02:13:56.860Z,19.70
2018-08-13T02:16:29.892Z,19.70
2018-08-13T02:18:58.850Z,19.60
2018-08-13T02:21:27.576Z,19.50
2018-08-13T02:23:56.252Z,19.50
2018-08-13T02:26:24.994Z,19.50
2018-08-13T02:28:53.891Z,19.50
2018-08-13T02:31:22.971Z,19.60
2018-08-13T02:33:51.773Z,19.50
2018-08-13T02:36:20.512Z,19.40
2018-08-13T02:38:49.213Z,19.30
2018-08-13T02:41:17.916Z,19.20
2018-08-13T02:43:46.636Z,19.10
2018-08-13T02:46:15.408Z,19.00
2018-08-13T02:48:44.128Z,19.00
2018-08-13T02:51:12.843Z,19.10
2018-08-13T02:53:41.440Z,19.20
2018-08-13T02:56:10.661Z,19.30
2018-08-13T02:58:39.367Z,19.40
2018-08-13T03:01:08.077Z,19.40
2018-08-13T03:03:36.874Z,19.40
2018-08-13T03:06:05.560Z,19.30
2018-08-13T03:08:34.234Z,19.20
2018-08-13T03:11:02.920Z,19.20
2018-08-13T03:13:31.646Z,19.20
2018-08-13T03:16:00.311Z,19.20
2018-08-13T03:18:28.941Z,19.20
2018-08-13T03:20:57.591Z,19.20
2018-08-13T03:23:26.955Z,19.20
2018-08-13T03:25:55.756Z,19.20
2018-08-13T03:28:24.252Z,19.20
2018-08-13T03:30:52.814Z,19.20
2018-08-13T03:33:21.486Z,19.20
2018-08-13T03:35:50.105Z,19.20
2018-08-13T03:38:18.642Z,19.10
2018-08-13T03:40:47.242Z,19.00
2018-08-13T03:43:16.584Z,19.00
2018-08-13T03:45:46.211Z,18.90
2018-08-13T03:48:14.900Z,18.90
2018-08-13T03:50:43.546Z,18.90
2018-08-13T03:53:13.036Z,18.80
2018-08-13T03:55:41.770Z,18.80
2018-08-13T03:58:10.399Z,18.80
2018-08-13T04:00:39.075Z,18.80
2018-08-13T04:03:08.043Z,18.80
2018-08-13T04:05:36.715Z,18.70
2018-08-13T04:08:05.593Z,18.60
2018-08-13T04:10:34.261Z,18.50
2018-08-13T04:13:03.247Z,18.50
2018-08-13T04:15:32.780Z,18.50
2018-08-13T04:18:01.524Z,18.50
2018-08-13T04:20:30.262Z,18.50
2018-08-13T04:22:59.291Z,18.40
2018-08-13T04:25:27.953Z,18.40
2018-08-13T04:27:56.557Z,18.40
2018-08-13T04:30:25.161Z,18.40
2018-08-13T04:32:53.893Z,18.40
2018-08-13T04:35:22.562Z,18.40
2018-08-13T04:37:51.076Z,18.40
2018-08-13T04:40:19.716Z,18.40
2018-08-13T04:42:48.536Z,18.40
2018-08-13T04:45:17.122Z,18.40
2018-08-13T04:47:49.592Z,18.40
2018-08-13T04:50:18.428Z,18.30
2018-08-13T04:52:46.954Z,18.30
2018-08-13T04:55:15.548Z,18.30
2018-08-13T04:57:45.463Z,18.30
2018-08-13T05:00:14.195Z,18.20
2018-08-13T05:02:42.833Z,18.30
2018-08-13T05:05:13.421Z,18.30
2018-08-13T05:07:42.309Z,18.30
2018-08-13T05:10:12.274Z,18.30
2018-08-13T05:12:41.536Z,18.30
2018-08-13T05:15:10.881Z,18.40
2018-08-13T05:17:39.389Z,18.40
2018-08-13T05:20:08.811Z,18.40
2018-08-13T05:22:37.443Z,18.50
2018-08-13T05:25:06.994Z,18.40
2018-08-13T05:27:35.730Z,18.40
2018-08-13T05:30:05.596Z,18.40
2018-08-13T05:32:34.101Z,18.40
2018-08-13T05:35:02.613Z,18.40
2018-08-13T05:37:31.087Z,18.50
2018-08-13T05:39:59.706Z,18.40
2018-08-13T05:42:28.307Z,18.40
2018-08-13T05:44:56.868Z,18.40
2018-08-13T05:47:25.398Z,18.40
2018-08-13T05:49:53.974Z,18.40
2018-08-13T05:52:22.699Z,18.40
2018-08-13T05:54:51.329Z,18.40
2018-08-13T05:57:20.071Z,18.40
2018-08-13T05:59:48.965Z,18.50
2018-08-13T06:02:18.200Z,18.50
2018-08-13T06:04:46.974Z,18.60
2018-08-13T06:07:15.530Z,18.60
2018-08-13T06:09:44.118Z,18.70
2018-08-13T06:12:12.724Z,18.60
2018-08-13T06:14:41.495Z,18.70
2018-08-13T06:17:10.158Z,18.70
2018-08-13T06:19:38.869Z,18.70
2018-08-13T06:22:07.671Z,18.70
2018-08-13T06:24:36.335Z,18.70
2018-08-13T06:27:04.925Z,18.70
2018-08-13T06:29:33.570Z,18.70
2018-08-13T06:32:02.278Z,18.80
2018-08-13T06:34:30.895Z,18.80
2018-08-13T06:36:59.531Z,18.90
2018-08-13T06:39:28.139Z,18.80
2018-08-13T06:41:56.737Z,18.90
2018-08-13T06:44:25.255Z,19.00
2018-08-13T06:46:53.780Z,19.10
2018-08-13T06:49:22.358Z,19.20
2018-08-13T06:51:50.941Z,19.10
2018-08-13T06:54:19.557Z,19.20
2018-08-13T06:56:48.076Z,19.20
2018-08-13T06:59:16.660Z,19.20
2018-08-13T07:01:45.222Z,19.20
2018-08-13T07:04:13.793Z,19.20
2018-08-13T07:06:42.417Z,19.20
2018-08-13T07:09:11.632Z,19.40
2018-08-13T07:11:40.310Z,19.70
2018-08-13T07:14:08.856Z,19.90
2018-08-13T07:16:37.593Z,19.90
2018-08-13T07:19:06.216Z,20.10
2018-08-13T07:21:35.382Z,20.30
2018-08-13T07:24:04.167Z,20.40
2018-08-13T07:26:32.725Z,20.60
2018-08-13T07:29:01.812Z,20.60
2018-08-13T07:31:30.317Z,20.60
2018-08-13T07:33:58.853Z,20.70
2018-08-13T07:36:27.371Z,20.80
2018-08-13T07:38:55.948Z,20.90
2018-08-13T07:41:24.469Z,21.20
2018-08-13T07:43:52.941Z,21.20
2018-08-13T07:46:21.490Z,21.40
2018-08-13T07:48:49.984Z,21.70
2018-08-13T07:51:18.502Z,21.70
2018-08-13T07:53:47.025Z,21.70
2018-08-13T07:56:15.604Z,21.80
2018-08-13T07:58:45.234Z,21.90
2018-08-13T08:01:13.874Z,22.10
2018-08-13T08:03:42.640Z,22.10
2018-08-13T08:06:13.472Z,22.40
2018-08-13T08:08:42.252Z,22.30
2018-08-13T08:11:11.221Z,22.30
2018-08-13T08:13:40.422Z,22.30
2018-08-13T08:16:09.816Z,22.20
2018-08-13T08:18:39.205Z,22.30
2018-08-13T08:21:08.333Z,22.40
2018-08-13T08:23:37.238Z,22.20
2018-08-13T08:26:09.237Z,22.20
2018-08-13T08:28:38.156Z,22.00
2018-08-13T08:31:07.736Z,22.00
2018-08-13T08:33:36.854Z,22.10
2018-08-13T08:36:05.984Z,22.20
2018-08-13T08:38:34.842Z,22.50
2018-08-13T08:41:04.444Z,22.40
2018-08-13T08:43:33.180Z,22.40
2018-08-13T08:46:02.628Z,22.50
2018-08-13T08:48:31.151Z,22.60
2018-08-13T08:51:00.551Z,22.70
2018-08-13T08:53:31.901Z,22.90
2018-08-13T08:56:00.573Z,22.90
2018-08-13T08:58:29.258Z,22.60
2018-08-13T09:00:57.975Z,22.80
2018-08-13T09:03:26.743Z,22.90
2018-08-13T09:05:55.521Z,22.60
2018-08-13T09:08:25.268Z,22.50
2018-08-13T09:10:53.937Z,22.60
2018-08-13T09:13:22.607Z,22.90
2018-08-13T09:15:51.444Z,23.00
2018-08-13T09:18:31.338Z,23.20
2018-08-13T09:21:10.981Z,23.20
2018-08-13T09:23:50.740Z,23.40
2018-08-13T09:26:31.306Z,23.20
2018-08-13T09:29:10.933Z,23.30
2018-08-13T09:32:22.163Z,23.40
2018-08-13T09:35:00.791Z,23.20
2018-08-13T09:37:29.841Z,23.20
2018-08-13T09:39:58.456Z,23.30
2018-08-13T09:42:27.100Z,23.30
2018-08-13T09:44:56.950Z,23.30
2018-08-13T09:47:26.022Z,23.30
2018-08-13T09:49:54.595Z,23.30
2018-08-13T09:52:23.394Z,23.30
2018-08-13T09:54:51.917Z,23.50
2018-08-13T09:57:20.501Z,23.30
2018-08-13T09:59:49.068Z,23.10
2018-08-13T10:02:17.716Z,23.20
2018-08-13T10:04:46.447Z,23.40
2018-08-13T10:07:14.980Z,23.40
2018-08-13T10:09:43.910Z,23.40
2018-08-13T10:12:19.748Z,23.60
2018-08-13T10:14:58.427Z,23.30
2018-08-13T10:17:27.663Z,23.60
2018-08-13T10:20:12.071Z,23.90
2018-08-13T10:22:41.599Z,23.90
2018-08-13T10:25:11.843Z,23.70
2018-08-13T10:27:40.790Z,23.50
2018-08-13T10:30:15.931Z,23.60
2018-08-13T10:32:45.896Z,23.70
2018-08-13T10:35:15.416Z,23.50
2018-08-13T10:37:44.237Z,23.40
2018-08-13T10:40:45.042Z,23.20
2018-08-13T10:43:15.008Z,23.10
2018-08-13T10:45:44.105Z,22.90
2018-08-13T10:48:17.693Z,22.70
2018-08-13T10:52:43.758Z,22.40
2018-08-13T10:55:22.484Z,22.40
2018-08-13T10:57:51.843Z,22.20
2018-08-13T11:00:20.600Z,21.90
2018-08-13T11:02:49.361Z,21.90
2018-08-13T11:05:20.089Z,21.70
2018-08-13T11:07:48.740Z,21.60
2018-08-13T11:10:17.407Z,21.70
2018-08-13T11:12:46.117Z,21.50
2018-08-13T11:18:00.406Z,21.10
2018-08-13T11:20:29.793Z,20.90
2018-08-13T11:23:03.603Z,20.70
2018-08-13T11:25:43.762Z,20.60
2018-08-13T11:28:13.087Z,20.50
2018-08-13T11:35:14.167Z,20.30
2018-08-13T11:44:39.561Z,19.60
2018-08-13T11:47:08.371Z,19.50
2018-08-13T11:49:37.081Z,19.50
2018-08-13T11:52:06.247Z,19.50
2018-08-13T11:54:38.444Z,19.60
2018-08-13T11:57:08.246Z,19.70
2018-08-13T11:59:40.202Z,19.60
2018-08-13T12:02:11.549Z,19.50
2018-08-13T12:04:41.861Z,19.40
2018-08-13T12:07:11.360Z,19.30
2018-08-13T12:09:41.840Z,19.10
2018-08-13T12:12:11.297Z,19.10
2018-08-13T12:14:40.294Z,19.00
2018-08-13T12:17:09.812Z,18.80
2018-08-13T12:19:42.560Z,18.80
2018-08-13T12:22:12.840Z,18.70
2018-08-13T12:24:42.093Z,18.80
2018-08-13T12:27:11.910Z,18.80
2018-08-13T12:29:41.087Z,18.70
2018-08-13T12:32:10.829Z,18.90
2018-08-13T12:34:39.647Z,19.10
2018-08-13T12:37:09.577Z,19.60
2018-08-13T12:39:39.615Z,19.70
2018-08-13T12:42:09.805Z,20.10
2018-08-13T12:44:41.905Z,20.30
2018-08-13T12:47:12.699Z,20.70
2018-08-13T12:49:44.845Z,20.90
2018-08-13T12:52:19.778Z,20.90
2018-08-13T12:54:51.745Z,21.00
2018-08-13T12:57:24.448Z,20.80
2018-08-13T12:59:54.597Z,21.00
2018-08-13T13:02:29.010Z,21.20
2018-08-13T13:05:23.147Z,21.50
2018-08-13T13:08:03.178Z,21.40
2018-08-13T13:10:33.127Z,21.60
2018-08-13T13:13:01.954Z,21.60
2018-08-13T13:15:30.895Z,21.60
2018-08-13T13:17:59.942Z,21.50
2018-08-13T13:20:28.717Z,21.30
2018-08-13T13:22:57.557Z,21.60
2018-08-13T13:25:26.222Z,21.80
2018-08-13T13:27:55.067Z,22.50
2018-08-13T13:30:23.722Z,22.60
2018-08-13T13:32:52.349Z,22.70
2018-08-13T13:35:20.851Z,23.00
2018-08-13T13:37:49.414Z,22.90
2018-08-13T13:40:18.686Z,23.20
2018-08-13T13:42:47.470Z,23.20
2018-08-13T13:45:17.322Z,22.90
2018-08-13T13:47:46.073Z,23.10
2018-08-13T13:50:16.425Z,23.10
2018-08-13T13:52:45.793Z,23.10
2018-08-13T13:55:16.239Z,23.00
2018-08-13T13:57:45.000Z,22.80
2018-08-13T14:00:16.911Z,23.40
2018-08-13T14:02:47.731Z,23.60
2018-08-13T14:05:16.433Z,24.30
2018-08-13T14:07:45.143Z,24.20
2018-08-13T14:10:15.682Z,24.20
2018-08-13T14:12:45.350Z,24.30
2018-08-13T14:15:17.385Z,24.90
2018-08-13T14:17:46.013Z,24.80
2018-08-13T14:20:15.091Z,24.30
2018-08-13T14:22:43.835Z,24.10
2018-08-13T14:25:13.835Z,23.90
2018-08-13T14:27:42.442Z,23.60
2018-08-13T14:30:14.041Z,23.70
2018-08-13T14:32:42.804Z,23.60
2018-08-13T14:35:11.475Z,23.20
2018-08-13T14:37:50.293Z,23.40
2018-08-13T14:40:22.691Z,23.40
2018-08-13T14:42:54.628Z,23.10
2018-08-13T14:45:24.857Z,23.00
2018-08-13T14:47:54.159Z,23.10
2018-08-13T14:50:24.796Z,23.10
2018-08-13T14:52:53.473Z,22.90
2018-08-13T14:55:22.853Z,22.70
2018-08-13T14:57:51.527Z,22.80
2018-08-13T15:00:22.434Z,22.90
2018-08-13T15:02:52.038Z,22.90
2018-08-13T15:05:20.679Z,22.90
2018-08-13T15:07:49.671Z,22.80
2018-08-13T15:10:21.150Z,22.70
2018-08-13T15:12:50.002Z,22.80
2018-08-13T15:15:18.632Z,22.70
2018-08-13T15:17:47.389Z,22.60
2018-08-13T15:20:20.835Z,22.90
2018-08-13T15:22:49.441Z,23.00
2018-08-13T15:25:18.012Z,23.30
2018-08-13T15:27:46.862Z,23.20
2018-08-13T15:30:16.945Z,23.00
2018-08-13T15:32:46.754Z,22.80
2018-08-13T15:35:15.278Z,22.80
2018-08-13T15:37:44.651Z,22.70
2018-08-13T15:40:14.085Z,22.70
2018-08-13T15:42:43.025Z,22.60
2018-08-13T15:45:13.613Z,22.80
2018-08-13T15:47:42.419Z,23.00
2018-08-13T15:50:12.651Z,23.30
2018-08-13T15:52:41.469Z,23.80
2018-08-13T15:55:10.153Z,24.30
2018-08-13T15:57:39.029Z,24.30
2018-08-13T16:00:09.325Z,24.30
2018-08-13T16:02:38.153Z,24.10
2018-08-13T16:05:08.383Z,23.90
2018-08-13T16:07:36.944Z,23.80
2018-08-13T16:10:10.342Z,23.40
2018-08-13T16:12:39.137Z,23.20
2018-08-13T16:15:08.114Z,23.30
2018-08-13T16:17:37.190Z,23.20
2018-08-13T16:20:10.763Z,23.30
2018-08-13T16:22:39.520Z,23.00
2018-08-13T16:25:08.556Z,22.90
2018-08-13T16:27:38.952Z,22.80
2018-08-13T16:30:15.029Z,22.40
2018-08-13T16:32:45.101Z,22.30
2018-08-13T16:35:17.321Z,22.10
2018-08-13T16:37:46.089Z,21.80
2018-08-13T16:40:15.613Z,21.70
2018-08-13T16:42:44.112Z,21.40
2018-08-13T16:45:14.332Z,21.40
2018-08-13T16:47:43.476Z,21.30
2018-08-13T16:50:24.191Z,21.10
2018-08-13T16:52:53.650Z,21.20
2018-08-13T16:55:23.271Z,21.20
2018-08-13T16:57:52.808Z,21.20
2018-08-13T17:00:24.848Z,21.00
2018-08-13T17:02:53.865Z,20.80
2018-08-13T17:05:23.242Z,20.50
2018-08-13T17:07:52.460Z,20.30
2018-08-13T17:10:24.750Z,20.10
2018-08-13T17:12:56.158Z,19.90
2018-08-13T17:15:27.870Z,19.80
2018-08-13T17:17:58.283Z,19.50
2018-08-13T17:20:29.552Z,19.40
2018-08-13T17:22:58.766Z,19.40
2018-08-13T17:25:27.545Z,19.30
2018-08-13T17:27:57.391Z,19.20
2018-08-13T17:30:27.253Z,19.30
2018-08-13T17:32:57.532Z,19.50
2018-08-13T17:35:35.647Z,19.50
2018-08-13T17:38:08.337Z,19.40
2018-08-13T17:40:37.158Z,19.40
2018-08-13T17:43:07.981Z,19.40
2018-08-13T17:45:38.386Z,19.50
2018-08-13T17:48:17.427Z,19.40
2018-08-13T17:51:01.703Z,19.40
2018-08-13T17:53:30.825Z,19.40
2018-08-13T17:56:01.088Z,19.40
2018-08-13T17:58:31.013Z,19.50
2018-08-13T18:01:02.457Z,19.50
2018-08-13T18:03:32.117Z,19.50
2018-08-13T18:06:34.478Z,19.40
2018-08-13T18:09:06.499Z,19.30
2018-08-13T18:11:36.076Z,19.30
2018-08-13T18:14:08.490Z,19.30
2018-08-13T18:16:37.814Z,19.30
2018-08-13T18:19:09.838Z,19.20
2018-08-13T18:21:38.972Z,19.20
2018-08-13T18:24:12.236Z,19.10
2018-08-13T18:26:41.981Z,19.20
2018-08-13T18:29:11.765Z,19.10
2018-08-13T18:31:42.508Z,19.00
2018-08-13T18:34:13.326Z,19.10
2018-08-13T18:36:42.997Z,19.00
2018-08-13T18:39:16.826Z,19.00
2018-08-13T18:41:46.039Z,19.00
2018-08-13T18:44:19.017Z,18.90
2018-08-13T18:46:50.025Z,18.90
2018-08-13T18:49:19.457Z,18.80
2018-08-13T18:51:50.777Z,18.90
2018-08-13T18:54:21.489Z,18.90
2018-08-13T18:56:53.503Z,18.80
2018-08-13T18:59:24.372Z,18.80
2018-08-13T19:01:54.283Z,18.70
2018-08-13T19:04:25.622Z,18.80
2018-08-13T19:06:55.693Z,18.80
2018-08-13T19:09:24.784Z,18.80
2018-08-13T19:11:53.967Z,18.80
2018-08-13T19:14:25.923Z,18.70
2018-08-13T19:16:55.744Z,18.70
2018-08-13T19:19:26.934Z,18.60
2018-08-13T19:21:58.069Z,18.60
2018-08-13T19:24:28.984Z,18.50
2018-08-13T19:26:59.370Z,18.50
2018-08-13T19:29:33.959Z,18.60
2018-08-13T19:36:06.212Z,18.40
2018-08-13T19:38:37.077Z,18.40
2018-08-13T19:41:06.467Z,18.40
2018-08-13T19:43:36.737Z,18.40
2018-08-13T19:46:08.014Z,18.40
2018-08-13T19:48:58.140Z,18.40
2018-08-13T19:51:29.058Z,18.40
2018-08-13T19:54:02.141Z,18.40
2018-08-13T19:56:32.751Z,18.30
2018-08-13T19:59:02.472Z,18.30
2018-08-13T20:01:33.258Z,18.20
2018-08-13T20:04:03.026Z,18.20
2018-08-13T20:06:32.702Z,18.10
2018-08-13T20:09:04.204Z,18.10
2018-08-13T20:11:34.872Z,18.10
2018-08-13T20:14:04.354Z,18.10
2018-08-13T20:16:33.336Z,18.10
2018-08-13T20:19:02.617Z,18.10
2018-08-13T20:21:32.071Z,18.20
2018-08-13T20:24:01.222Z,18.10
2018-08-13T20:26:30.427Z,18.20
2018-08-13T20:28:59.645Z,18.10
2018-08-13T20:31:29.235Z,18.10
2018-08-13T20:33:59.089Z,18.00
2018-08-13T20:39:15.323Z,18.10
2018-08-13T20:41:45.793Z,18.00
2018-08-13T20:44:16.310Z,17.90
2018-08-13T20:46:46.631Z,18.00
2018-08-13T20:49:17.717Z,18.00
2018-08-13T20:51:46.912Z,18.00
2018-08-13T20:54:17.631Z,18.00
2018-08-13T20:56:47.680Z,18.10
2018-08-13T20:59:17.075Z,18.10
2018-08-13T21:01:46.216Z,18.10
2018-08-13T21:04:16.251Z,18.10
2018-08-13T21:06:46.569Z,18.00
2018-08-13T21:09:16.637Z,18.10
2018-08-13T21:11:46.281Z,18.10
2018-08-13T21:14:15.603Z,18.00
2018-08-13T21:16:47.129Z,18.00
2018-08-13T21:19:17.349Z,18.00
2018-08-13T21:21:46.649Z,18.00
2018-08-13T21:24:16.813Z,17.90
2018-08-13T21:26:48.781Z,17.90
2018-08-13T21:29:18.069Z,17.90
2018-08-13T21:31:48.540Z,17.80
2018-08-13T21:34:18.447Z,17.80
2018-08-13T21:36:47.851Z,17.80
2018-08-13T21:39:16.880Z,17.80
2018-08-13T21:41:47.465Z,17.80
2018-08-13T21:44:17.482Z,17.70
2018-08-13T21:46:46.999Z,17.70
2018-08-13T21:49:16.811Z,17.70
2018-08-13T21:51:46.455Z,17.70
2018-08-13T21:54:16.975Z,17.80
2018-08-13T21:56:47.015Z,17.80
2018-08-13T21:59:16.737Z,17.90
2018-08-13T22:01:48.361Z,17.80
2018-08-13T22:04:18.881Z,17.90
2018-08-13T22:06:48.093Z,17.90
2018-08-13T22:09:18.833Z,17.90
2018-08-13T22:11:48.689Z,17.90
2018-08-13T22:14:20.072Z,17.90
2018-08-13T22:16:51.128Z,17.90
2018-08-13T22:19:25.181Z,17.90
2018-08-13T22:21:54.868Z,17.90
2018-08-13T22:24:35.332Z,17.80
2018-08-13T22:27:05.741Z,17.90
2018-08-13T22:29:36.089Z,17.90
2018-08-13T22:32:05.211Z,17.90
2018-08-13T22:34:34.882Z,17.90
2018-08-13T22:37:03.828Z,17.90
2018-08-13T22:39:34.114Z,17.90
2018-08-13T22:42:03.282Z,17.90
2018-08-13T22:44:32.712Z,18.00
2018-08-13T22:47:01.944Z,18.00
2018-08-13T22:49:30.693Z,18.00
2018-08-13T22:51:59.864Z,18.00
2018-08-13T22:54:28.929Z,18.00
2018-08-13T22:56:57.744Z,18.00
2018-08-13T22:59:26.529Z,18.00
2018-08-13T23:01:55.620Z,18.00
2018-08-13T23:04:24.660Z,18.00
2018-08-13T23:06:53.876Z,17.90
2018-08-13T23:09:22.676Z,18.00
2018-08-13T23:11:52.749Z,17.90
2018-08-13T23:14:23.405Z,17.90
2018-08-13T23:16:52.276Z,17.80
2018-08-13T23:19:21.043Z,17.80
2018-08-13T23:21:51.374Z,17.80
2018-08-13T23:24:20.666Z,17.70
2018-08-13T23:26:49.399Z,17.70
2018-08-13T23:29:18.511Z,17.70
2018-08-13T23:31:47.340Z,17.60
2018-08-13T23:34:16.977Z,17.70
2018-08-13T23:36:51.018Z,17.70
2018-08-13T23:39:19.995Z,17.70
2018-08-13T23:41:48.911Z,17.70
2018-08-13T23:44:17.847Z,17.60
2018-08-13T23:46:46.659Z,17.70
2018-08-13T23:49:15.590Z,17.70
2018-08-13T23:51:44.396Z,17.80
2018-08-13T23:54:13.488Z,17.80
2018-08-13T23:56:42.072Z,17.80
2018-08-13T23:59:10.831Z,17.80
